createdAt,value
2018-12-14T00:00:08.696Z,0.00
2018-12-14T00:01:08.659Z,0.00
2018-12-14T00:02:08.676Z,0.00
2018-12-14T00:03:08.640Z,0.00
2018-12-14T00:04:08.627Z,0.00
2018-12-14T00:05:08.617Z,0.00
2018-12-14T00:06:08.639Z,0.00
2018-12-14T00:07:08.603Z,0.00
2018-12-14T00:08:08.583Z,0.00
2018-12-14T00:09:08.573Z,0.00
2018-12-14T00:10:08.568Z,0.00
2018-12-14T00:11:08.575Z,0.00
2018-12-14T00:12:08.563Z,0.00
2018-12-14T00:13:08.583Z,0.00
2018-12-14T00:14:08.533Z,0.00
2018-12-14T00:15:08.518Z,0.00
2018-12-14T00:16:08.560Z,0.00
2018-12-14T00:17:08.504Z,0.00
2018-12-14T00:18:08.494Z,0.00
2018-12-14T00:19:08.474Z,0.00
2018-12-14T00:20:08.459Z,0.00
2018-12-14T00:21:08.462Z,0.00
2018-12-14T00:22:08.463Z,0.00
2018-12-14T00:23:08.428Z,0.00
2018-12-14T00:24:08.413Z,0.00
2018-12-14T00:25:08.408Z,0.00
2018-12-14T00:26:08.392Z,0.00
2018-12-14T00:27:08.417Z,0.00
2018-12-14T00:28:08.391Z,0.00
2018-12-14T00:29:08.368Z,0.00
2018-12-14T00:30:08.356Z,0.00
2018-12-14T00:31:08.342Z,0.00
2018-12-14T00:32:08.358Z,0.00
2018-12-14T00:33:08.323Z,0.00
2018-12-14T00:34:08.319Z,0.00
2018-12-14T00:35:08.310Z,0.00
2018-12-14T00:36:08.289Z,0.00
2018-12-14T00:37:08.286Z,0.00
2018-12-14T00:38:08.301Z,0.00
2018-12-14T00:39:08.262Z,0.00
2018-12-14T00:40:08.246Z,0.00
2018-12-14T00:41:08.236Z,0.00
2018-12-14T00:42:08.224Z,0.00
2018-12-14T00:43:08.275Z,0.00
2018-12-14T00:44:08.200Z,0.00
2018-12-14T00:45:08.194Z,0.00
2018-12-14T00:46:08.189Z,0.00
2018-12-14T00:47:08.192Z,0.00
2018-12-14T00:48:08.202Z,0.00
2018-12-14T00:49:08.168Z,0.00
2018-12-14T00:50:08.134Z,0.00
2018-12-14T00:51:08.138Z,0.00
2018-12-14T00:52:08.145Z,0.00
2018-12-14T00:53:08.116Z,0.00
2018-12-14T00:54:08.115Z,0.00
2018-12-14T00:55:08.089Z,0.00
2018-12-14T00:56:08.091Z,0.00
2018-12-14T00:57:08.079Z,0.00
2018-12-14T00:58:08.074Z,0.00
2018-12-14T00:59:08.069Z,0.00
2018-12-14T01:00:08.058Z,0.00
2018-12-14T01:01:08.029Z,0.00
2018-12-14T01:02:08.008Z,0.00
2018-12-14T01:03:08.005Z,0.00
2018-12-14T01:04:08.020Z,0.00
2018-12-14T01:05:07.985Z,0.00
2018-12-14T01:06:07.979Z,0.00
2018-12-14T01:07:07.960Z,0.00
2018-12-14T01:08:07.965Z,0.00
2018-12-14T01:09:07.955Z,0.00
2018-12-14T01:10:07.955Z,0.00
2018-12-14T01:11:07.924Z,0.00
2018-12-14T01:12:07.904Z,0.00
2018-12-14T01:13:07.897Z,0.00
2018-12-14T01:14:07.881Z,0.00
2018-12-14T01:15:07.915Z,0.00
2018-12-14T01:16:07.882Z,0.00
2018-12-14T01:17:07.857Z,0.00
2018-12-14T01:18:07.874Z,0.00
2018-12-14T01:19:07.828Z,0.00
2018-12-14T01:20:07.851Z,0.00
2018-12-14T01:21:07.805Z,0.00
2018-12-14T01:22:07.796Z,0.00
2018-12-14T01:23:07.815Z,0.00
2018-12-14T01:24:07.781Z,0.00
2018-12-14T01:25:07.763Z,0.00
2018-12-14T01:26:07.779Z,0.00
2018-12-14T01:27:07.750Z,0.00
2018-12-14T01:28:07.743Z,0.00
2018-12-14T01:29:07.733Z,0.00
2018-12-14T01:30:07.726Z,0.00
2018-12-14T01:31:07.720Z,0.00
2018-12-14T01:32:07.716Z,0.00
2018-12-14T01:33:07.695Z,0.00
2018-12-14T01:34:07.672Z,0.00
2018-12-14T01:35:07.668Z,0.00
2018-12-14T01:36:07.698Z,0.00
2018-12-14T01:37:07.638Z,0.00
2018-12-14T01:38:07.684Z,0.00
2018-12-14T01:39:07.621Z,0.00
2018-12-14T01:40:07.606Z,0.00
2018-12-14T01:41:07.647Z,0.00
2018-12-14T01:42:07.589Z,0.00
2018-12-14T01:43:07.582Z,0.00
2018-12-14T01:44:07.559Z,0.00
2018-12-14T01:45:07.585Z,0.00
2018-12-14T01:46:07.547Z,0.00
2018-12-14T01:47:07.577Z,0.00
2018-12-14T01:48:07.531Z,0.00
2018-12-14T01:49:07.548Z,0.00
2018-12-14T01:50:07.500Z,0.00
2018-12-14T01:51:07.493Z,0.00
2018-12-14T01:52:07.506Z,0.00
2018-12-14T01:53:07.518Z,0.00
2018-12-14T01:54:07.460Z,0.00
2018-12-14T01:55:07.447Z,0.00
2018-12-14T01:56:07.444Z,0.00
2018-12-14T01:57:07.451Z,0.00
2018-12-14T01:58:07.433Z,0.00
2018-12-14T01:59:07.411Z,0.00
2018-12-14T02:00:07.389Z,0.00
2018-12-14T02:01:07.412Z,0.00
2018-12-14T02:02:07.374Z,0.00
2018-12-14T02:03:07.433Z,0.00
2018-12-14T02:04:07.387Z,0.00
2018-12-14T02:05:07.366Z,0.00
2018-12-14T02:06:07.336Z,0.00
2018-12-14T02:07:07.314Z,0.00
2018-12-14T02:08:07.350Z,0.00
2018-12-14T02:09:07.312Z,0.00
2018-12-14T02:10:07.304Z,0.00
2018-12-14T02:11:07.285Z,0.00
2018-12-14T02:12:11.207Z,0.00
2018-12-14T02:13:07.290Z,0.00
2018-12-14T02:14:07.718Z,0.00
2018-12-14T02:15:07.244Z,0.00
2018-12-14T02:16:07.234Z,0.00
2018-12-14T02:17:07.246Z,0.00
2018-12-14T02:18:07.207Z,0.00
2018-12-14T02:19:07.265Z,0.00
2018-12-14T02:20:07.182Z,0.00
2018-12-14T02:21:07.209Z,0.00
2018-12-14T02:22:07.155Z,0.00
2018-12-14T02:23:07.155Z,0.00
2018-12-14T02:24:07.151Z,0.00
2018-12-14T02:25:07.127Z,0.00
2018-12-14T02:26:07.119Z,0.00
2018-12-14T02:27:07.101Z,0.00
2018-12-14T02:28:07.097Z,0.00
2018-12-14T02:29:07.131Z,0.00
2018-12-14T02:30:07.073Z,0.00
2018-12-14T02:31:07.060Z,0.00
2018-12-14T02:32:07.051Z,0.00
2018-12-14T02:33:07.034Z,0.00
2018-12-14T02:34:07.028Z,0.00
2018-12-14T02:35:07.046Z,0.00
2018-12-14T02:36:07.038Z,0.00
2018-12-14T02:37:06.996Z,0.00
2018-12-14T02:38:07.025Z,0.00
2018-12-14T02:39:07.033Z,0.00
2018-12-14T02:40:06.996Z,0.00
2018-12-14T02:41:06.952Z,0.00
2018-12-14T02:42:07.004Z,0.00
2018-12-14T02:43:06.952Z,0.00
2018-12-14T02:44:06.926Z,0.00
2018-12-14T02:45:06.969Z,0.00
2018-12-14T02:46:06.898Z,0.00
2018-12-14T02:47:06.893Z,0.00
2018-12-14T02:48:06.885Z,0.00
2018-12-14T02:49:06.866Z,0.00
2018-12-14T02:50:06.886Z,0.00
2018-12-14T02:51:06.856Z,0.00
2018-12-14T02:52:06.833Z,0.00
2018-12-14T02:53:06.839Z,0.00
2018-12-14T02:54:06.841Z,0.00
2018-12-14T02:55:06.805Z,0.00
2018-12-14T02:56:06.814Z,0.00
2018-12-14T02:57:06.806Z,0.00
2018-12-14T02:58:06.775Z,0.00
2018-12-14T02:59:06.762Z,0.00
2018-12-14T03:00:06.758Z,0.00
2018-12-14T03:01:06.782Z,0.00
2018-12-14T03:02:06.735Z,0.00
2018-12-14T03:03:06.724Z,0.00
2018-12-14T03:04:06.707Z,0.00
2018-12-14T03:05:06.696Z,0.00
2018-12-14T03:06:06.722Z,0.00
2018-12-14T03:07:06.709Z,0.00
2018-12-14T03:08:06.678Z,0.00
2018-12-14T03:09:06.676Z,0.00
2018-12-14T03:10:06.640Z,0.00
2018-12-14T03:11:06.632Z,0.00
2018-12-14T03:12:06.643Z,0.00
2018-12-14T03:13:06.611Z,0.00
2018-12-14T03:14:06.606Z,0.00
2018-12-14T03:15:06.597Z,0.00
2018-12-14T03:16:06.578Z,0.00
2018-12-14T03:17:06.598Z,0.00
2018-12-14T03:18:06.551Z,0.00
2018-12-14T03:19:06.565Z,0.00
2018-12-14T03:20:06.554Z,0.00
2018-12-14T03:21:06.549Z,0.00
2018-12-14T03:22:06.563Z,0.00
2018-12-14T03:23:06.526Z,0.00
2018-12-14T03:24:06.512Z,0.00
2018-12-14T03:25:06.515Z,0.00
2018-12-14T03:26:06.472Z,0.00
2018-12-14T03:27:06.459Z,0.00
2018-12-14T03:28:06.470Z,0.00
2018-12-14T03:29:06.482Z,0.00
2018-12-14T03:30:06.441Z,0.00
2018-12-14T03:31:06.421Z,0.00
2018-12-14T03:32:06.412Z,0.00
2018-12-14T03:33:06.446Z,0.00
2018-12-14T03:34:06.385Z,0.00
2018-12-14T03:35:06.384Z,0.00
2018-12-14T03:36:06.413Z,0.00
2018-12-14T03:37:06.385Z,0.00
2018-12-14T03:38:06.359Z,0.00
2018-12-14T03:39:06.346Z,0.00
2018-12-14T03:40:06.330Z,0.00
2018-12-14T03:41:06.321Z,0.00
2018-12-14T03:42:06.315Z,0.00
2018-12-14T03:43:06.328Z,0.00
2018-12-14T03:44:06.308Z,0.00
2018-12-14T03:45:06.273Z,0.00
2018-12-14T03:46:06.272Z,0.00
2018-12-14T03:47:06.248Z,0.00
2018-12-14T03:48:06.239Z,0.00
2018-12-14T03:49:06.261Z,0.00
2018-12-14T03:50:06.223Z,0.00
2018-12-14T03:51:06.204Z,0.00
2018-12-14T03:52:06.197Z,0.00
2018-12-14T03:53:06.193Z,0.00
2018-12-14T03:54:06.208Z,0.00
2018-12-14T03:55:06.588Z,0.00
2018-12-14T03:56:06.179Z,0.00
2018-12-14T03:57:06.161Z,0.00
2018-12-14T03:58:06.158Z,0.00
2018-12-14T03:59:06.155Z,0.00
2018-12-14T04:00:06.132Z,0.00
2018-12-14T04:01:06.144Z,0.00
2018-12-14T04:02:06.099Z,0.00
2018-12-14T04:03:06.086Z,0.00
2018-12-14T04:04:06.076Z,0.00
2018-12-14T04:05:06.070Z,0.00
2018-12-14T04:06:06.052Z,0.00
2018-12-14T04:07:06.030Z,0.00
2018-12-14T04:08:06.045Z,0.00
2018-12-14T04:09:06.009Z,0.00
2018-12-14T04:10:06.051Z,0.00
2018-12-14T04:11:06.019Z,0.00
2018-12-14T04:12:05.980Z,0.00
2018-12-14T04:13:05.990Z,0.00
2018-12-14T04:14:05.969Z,0.00
2018-12-14T04:15:06.026Z,0.00
2018-12-14T04:16:05.936Z,0.00
2018-12-14T04:17:05.926Z,0.00
2018-12-14T04:18:05.922Z,0.00
2018-12-14T04:19:05.924Z,0.00
2018-12-14T04:20:05.935Z,0.00
2018-12-14T04:21:05.883Z,0.00
2018-12-14T04:22:05.882Z,0.00
2018-12-14T04:23:05.878Z,0.00
2018-12-14T04:24:05.865Z,0.00
2018-12-14T04:25:05.880Z,0.00
2018-12-14T04:26:05.891Z,0.00
2018-12-14T04:27:05.838Z,0.00
2018-12-14T04:28:05.821Z,0.00
2018-12-14T04:29:05.808Z,0.00
2018-12-14T04:30:05.821Z,0.00
2018-12-14T04:31:05.800Z,0.00
2018-12-14T04:32:05.786Z,0.00
2018-12-14T04:33:05.772Z,0.00
2018-12-14T04:34:05.775Z,0.00
2018-12-14T04:35:05.735Z,0.00
2018-12-14T04:36:05.786Z,0.00
2018-12-14T04:37:05.717Z,0.00
2018-12-14T04:38:05.702Z,0.00
2018-12-14T04:39:05.702Z,0.00
2018-12-14T04:40:05.707Z,0.00
2018-12-14T04:41:05.695Z,0.00
2018-12-14T04:42:05.693Z,0.00
2018-12-14T04:43:05.668Z,0.00
2018-12-14T04:44:05.639Z,0.00
2018-12-14T04:45:05.636Z,0.00
2018-12-14T04:46:05.638Z,0.00
2018-12-14T04:47:05.635Z,0.00
2018-12-14T04:48:05.603Z,0.00
2018-12-14T04:49:05.597Z,0.00
2018-12-14T04:50:05.577Z,0.00
2018-12-14T04:51:05.570Z,0.00
2018-12-14T04:52:05.554Z,0.00
2018-12-14T04:53:05.576Z,0.00
2018-12-14T04:54:05.563Z,0.00
2018-12-14T04:55:05.519Z,0.00
2018-12-14T04:56:05.513Z,0.00
2018-12-14T04:57:05.504Z,0.00
2018-12-14T04:58:05.544Z,0.00
2018-12-14T04:59:05.492Z,0.00
2018-12-14T05:00:05.505Z,0.00
2018-12-14T05:01:05.457Z,0.00
2018-12-14T05:02:05.456Z,0.00
2018-12-14T05:03:05.463Z,0.00
2018-12-14T05:04:05.429Z,0.00
2018-12-14T05:05:05.413Z,0.00
2018-12-14T05:06:05.434Z,0.00
2018-12-14T05:07:05.412Z,0.00
2018-12-14T05:08:05.389Z,0.00
2018-12-14T05:09:05.393Z,0.00
2018-12-14T05:10:05.377Z,0.00
2018-12-14T05:11:05.355Z,0.00
2018-12-14T05:12:05.347Z,0.00
2018-12-14T05:13:05.325Z,0.00
2018-12-14T05:14:05.333Z,0.00
2018-12-14T05:15:05.333Z,0.00
2018-12-14T05:16:05.303Z,0.00
2018-12-14T05:17:05.295Z,0.00
2018-12-14T05:18:05.293Z,0.00
2018-12-14T05:19:05.308Z,0.00
2018-12-14T05:20:05.263Z,0.00
2018-12-14T05:21:05.269Z,0.00
2018-12-14T05:22:05.237Z,0.00
2018-12-14T05:23:05.236Z,0.00
2018-12-14T05:24:05.249Z,0.00
2018-12-14T05:25:05.250Z,0.00
2018-12-14T05:26:05.201Z,0.00
2018-12-14T05:27:05.181Z,0.00
2018-12-14T05:28:05.170Z,0.00
2018-12-14T05:29:05.182Z,0.00
2018-12-14T05:30:05.178Z,0.00
2018-12-14T05:31:05.135Z,0.00
2018-12-14T05:32:05.144Z,0.00
2018-12-14T05:33:05.113Z,0.00
2018-12-14T05:34:05.104Z,0.00
2018-12-14T05:35:05.122Z,0.00
2018-12-14T05:36:05.092Z,0.00
2018-12-14T05:37:05.071Z,0.00
2018-12-14T05:38:05.100Z,0.00
2018-12-14T05:39:06.012Z,0.00
2018-12-14T05:40:05.087Z,0.00
2018-12-14T05:41:05.064Z,0.00
2018-12-14T05:42:05.020Z,0.00
2018-12-14T05:43:05.005Z,0.00
2018-12-14T05:44:05.032Z,0.00
2018-12-14T05:45:04.986Z,0.00
2018-12-14T05:46:05.020Z,0.00
2018-12-14T05:47:04.985Z,0.00
2018-12-14T05:48:04.983Z,0.00
2018-12-14T05:49:04.952Z,0.00
2018-12-14T05:50:04.963Z,0.00
2018-12-14T05:51:04.958Z,0.00
2018-12-14T05:52:04.923Z,0.00
2018-12-14T05:53:04.902Z,0.00
2018-12-14T05:54:04.919Z,0.00
2018-12-14T05:55:04.884Z,0.00
2018-12-14T05:56:04.907Z,0.00
2018-12-14T05:57:04.856Z,0.00
2018-12-14T05:58:04.847Z,0.00
2018-12-14T05:59:04.845Z,0.00
2018-12-14T06:00:04.831Z,0.00
2018-12-14T06:01:04.871Z,0.00
2018-12-14T06:02:04.829Z,0.00
2018-12-14T06:03:04.798Z,0.00
2018-12-14T06:04:04.811Z,0.00
2018-12-14T06:05:04.785Z,0.00
2018-12-14T06:06:04.760Z,0.00
2018-12-14T06:07:04.775Z,0.00
2018-12-14T06:08:04.739Z,0.00
2018-12-14T06:09:04.737Z,0.00
2018-12-14T06:10:04.738Z,0.00
2018-12-14T06:11:04.707Z,0.00
2018-12-14T06:12:04.737Z,0.00
2018-12-14T06:13:09.105Z,0.00
2018-12-14T06:14:04.676Z,0.00
2018-12-14T06:15:04.663Z,0.00
2018-12-14T06:16:04.667Z,0.00
2018-12-14T06:17:04.659Z,0.00
2018-12-14T06:18:04.661Z,0.00
2018-12-14T06:19:04.634Z,0.00
2018-12-14T06:20:04.624Z,0.00
2018-12-14T06:21:04.599Z,0.00
2018-12-14T06:22:04.602Z,0.00
2018-12-14T06:23:04.619Z,0.00
2018-12-14T06:24:04.571Z,0.00
2018-12-14T06:25:04.589Z,0.00
2018-12-14T06:26:04.549Z,0.00
2018-12-14T06:27:04.538Z,0.00
2018-12-14T06:28:04.553Z,0.00
2018-12-14T06:29:04.517Z,0.00
2018-12-14T06:30:04.504Z,0.00
2018-12-14T06:31:04.527Z,0.00
2018-12-14T06:32:04.494Z,0.00
2018-12-14T06:33:04.471Z,0.00
2018-12-14T06:34:04.495Z,0.00
2018-12-14T06:35:04.461Z,0.00
2018-12-14T06:36:04.459Z,0.00
2018-12-14T06:37:04.430Z,0.00
2018-12-14T06:38:04.412Z,0.00
2018-12-14T06:39:04.449Z,0.00
2018-12-14T06:40:04.400Z,0.00
2018-12-14T06:41:04.380Z,0.00
2018-12-14T06:42:04.377Z,0.00
2018-12-14T06:43:04.376Z,0.00
2018-12-14T06:44:04.385Z,0.00
2018-12-14T06:45:04.340Z,0.00
2018-12-14T06:46:04.344Z,0.00
2018-12-14T06:47:04.323Z,0.00
2018-12-14T06:48:04.314Z,0.00
2018-12-14T06:49:04.335Z,0.00
2018-12-14T06:50:04.330Z,4.00
2018-12-14T06:51:04.285Z,4.00
2018-12-14T06:52:04.284Z,4.00
2018-12-14T06:53:04.257Z,0.00
2018-12-14T06:54:04.256Z,0.00
2018-12-14T06:55:04.258Z,0.00
2018-12-14T06:56:04.262Z,4.00
2018-12-14T06:57:04.221Z,4.00
2018-12-14T06:58:04.217Z,4.00
2018-12-14T06:59:04.206Z,0.00
2018-12-14T07:00:04.224Z,4.00
2018-12-14T07:01:04.177Z,4.00
2018-12-14T07:02:04.157Z,4.00
2018-12-14T07:03:04.152Z,4.00
2018-12-14T07:04:04.145Z,8.00
2018-12-14T07:05:04.171Z,4.00
2018-12-14T07:06:04.155Z,4.00
2018-12-14T07:07:04.353Z,8.00
2018-12-14T07:08:04.111Z,8.00
2018-12-14T07:09:04.105Z,8.00
2018-12-14T07:10:04.108Z,8.00
2018-12-14T07:11:04.089Z,8.00
2018-12-14T07:12:04.052Z,8.00
2018-12-14T07:13:04.053Z,12.00
2018-12-14T07:14:04.045Z,8.00
2018-12-14T07:15:04.036Z,12.00
2018-12-14T07:16:04.019Z,12.00
2018-12-14T07:17:04.055Z,12.00
2018-12-14T07:18:03.996Z,12.00
2018-12-14T07:19:03.982Z,16.00
2018-12-14T07:20:03.979Z,12.00
2018-12-14T07:21:03.961Z,16.00
2018-12-14T07:22:03.992Z,16.00
2018-12-14T07:23:03.948Z,16.00
2018-12-14T07:24:03.940Z,20.00
2018-12-14T07:25:04.572Z,20.00
2018-12-14T07:26:03.902Z,20.00
2018-12-14T07:27:03.957Z,20.00
2018-12-14T07:28:03.919Z,20.00
2018-12-14T07:29:03.872Z,20.00
2018-12-14T07:30:03.874Z,20.00
2018-12-14T07:31:03.847Z,24.00
2018-12-14T07:32:03.856Z,24.00
2018-12-14T07:33:03.853Z,24.00
2018-12-14T07:34:03.831Z,20.00
2018-12-14T07:35:03.855Z,24.00
2018-12-14T07:36:03.800Z,28.00
2018-12-14T07:37:03.796Z,28.00
2018-12-14T07:38:03.796Z,28.00
2018-12-14T07:39:03.777Z,28.00
2018-12-14T07:40:03.771Z,28.00
2018-12-14T07:41:03.747Z,28.00
2018-12-14T07:42:03.802Z,28.00
2018-12-14T07:43:03.754Z,32.00
2018-12-14T07:44:03.728Z,32.00
2018-12-14T07:45:03.716Z,36.00
2018-12-14T07:46:03.691Z,32.00
2018-12-14T07:47:03.677Z,36.00
2018-12-14T07:48:03.714Z,36.00
2018-12-14T07:49:03.688Z,40.00
2018-12-14T07:50:03.642Z,40.00
2018-12-14T07:51:03.635Z,44.00
2018-12-14T07:52:03.658Z,40.00
2018-12-14T07:53:09.091Z,40.00
2018-12-14T07:54:04.643Z,44.00
2018-12-14T07:55:03.609Z,48.00
2018-12-14T07:56:03.597Z,44.00
2018-12-14T07:57:03.606Z,48.00
2018-12-14T07:58:03.566Z,44.00
2018-12-14T07:59:03.564Z,48.00
2018-12-14T08:00:03.537Z,52.00
2018-12-14T08:01:03.571Z,52.00
2018-12-14T08:02:03.518Z,52.00
2018-12-14T08:03:03.533Z,48.00
2018-12-14T08:04:03.530Z,52.00
2018-12-14T08:05:03.483Z,56.00
2018-12-14T08:06:03.471Z,52.00
2018-12-14T08:07:03.484Z,56.00
2018-12-14T08:08:03.457Z,60.00
2018-12-14T08:09:03.441Z,60.00
2018-12-14T08:10:03.479Z,64.00
2018-12-14T08:11:03.420Z,68.00
2018-12-14T08:12:03.435Z,76.00
2018-12-14T08:13:03.401Z,76.00
2018-12-14T08:14:03.390Z,72.00
2018-12-14T08:15:03.400Z,72.00
2018-12-14T08:16:03.367Z,72.00
2018-12-14T08:17:03.361Z,68.00
2018-12-14T08:18:03.370Z,72.00
2018-12-14T08:19:03.340Z,80.00
2018-12-14T08:20:03.348Z,76.00
2018-12-14T08:21:03.313Z,76.00
2018-12-14T08:22:03.304Z,76.00
2018-12-14T08:23:03.297Z,84.00
2018-12-14T08:24:03.279Z,88.00
2018-12-14T08:25:03.276Z,88.00
2018-12-14T08:26:03.276Z,92.00
2018-12-14T08:27:03.279Z,96.00
2018-12-14T08:28:03.287Z,100.00
2018-12-14T08:29:03.234Z,104.00
2018-12-14T08:30:03.234Z,96.00
2018-12-14T08:31:03.209Z,88.00
2018-12-14T08:32:03.192Z,92.00
2018-12-14T08:33:03.203Z,92.00
2018-12-14T08:34:03.193Z,92.00
2018-12-14T08:35:03.163Z,92.00
2018-12-14T08:36:03.166Z,96.00
2018-12-14T08:37:03.154Z,92.00
2018-12-14T08:38:03.194Z,92.00
2018-12-14T08:39:03.144Z,96.00
2018-12-14T08:40:03.120Z,104.00
2018-12-14T08:41:03.098Z,100.00
2018-12-14T08:42:03.085Z,88.00
2018-12-14T08:43:03.084Z,80.00
2018-12-14T08:44:03.082Z,92.00
2018-12-14T08:45:03.067Z,104.00
2018-12-14T08:46:03.043Z,112.00
2018-12-14T08:47:03.032Z,108.00
2018-12-14T08:48:03.027Z,108.00
2018-12-14T08:49:03.039Z,108.00
2018-12-14T08:50:03.038Z,100.00
2018-12-14T08:51:03.000Z,100.00
2018-12-14T08:52:02.982Z,96.00
2018-12-14T08:53:02.971Z,108.00
2018-12-14T08:54:03.016Z,100.00
2018-12-14T08:55:02.947Z,88.00
2018-12-14T08:56:02.944Z,92.00
2018-12-14T08:57:02.941Z,96.00
2018-12-14T08:58:02.922Z,96.00
2018-12-14T08:59:02.946Z,96.00
2018-12-14T09:00:02.916Z,92.00
2018-12-14T09:01:02.891Z,92.00
2018-12-14T09:02:02.874Z,92.00
2018-12-14T09:03:02.872Z,88.00
2018-12-14T09:04:02.854Z,88.00
2018-12-14T09:05:02.863Z,96.00
2018-12-14T09:06:02.842Z,104.00
2018-12-14T09:07:02.825Z,112.00
2018-12-14T09:08:02.831Z,108.00
2018-12-14T09:09:02.803Z,92.00
2018-12-14T09:10:02.783Z,84.00
2018-12-14T09:11:02.817Z,96.00
2018-12-14T09:12:02.772Z,108.00
2018-12-14T09:13:02.786Z,104.00
2018-12-14T09:14:02.751Z,96.00
2018-12-14T09:15:02.762Z,96.00
2018-12-14T09:16:02.719Z,88.00
2018-12-14T09:17:02.763Z,88.00
2018-12-14T09:18:02.703Z,88.00
2018-12-14T09:19:02.737Z,96.00
2018-12-14T09:20:02.729Z,96.00
2018-12-14T09:21:02.680Z,96.00
2018-12-14T09:22:02.714Z,96.00
2018-12-14T09:23:04.142Z,96.00
2018-12-14T09:24:02.646Z,96.00
2018-12-14T09:25:02.624Z,84.00
2018-12-14T09:26:02.632Z,88.00
2018-12-14T09:27:02.619Z,92.00
2018-12-14T09:28:02.640Z,112.00
2018-12-14T09:29:02.594Z,116.00
2018-12-14T09:30:02.585Z,112.00
2018-12-14T09:31:02.608Z,120.00
2018-12-14T09:32:02.549Z,132.00
2018-12-14T09:33:02.553Z,136.00
2018-12-14T09:34:02.536Z,124.00
2018-12-14T09:35:02.515Z,124.00
2018-12-14T09:36:02.514Z,132.00
2018-12-14T09:37:02.498Z,136.00
2018-12-14T09:38:02.517Z,132.00
2018-12-14T09:39:02.481Z,148.00
2018-12-14T09:40:02.479Z,148.00
2018-12-14T09:41:02.491Z,148.00
2018-12-14T09:42:02.439Z,160.00
2018-12-14T09:43:02.442Z,168.00
2018-12-14T09:44:02.445Z,172.00
2018-12-14T09:45:03.303Z,168.00
2018-12-14T09:46:02.421Z,164.00
2018-12-14T09:47:02.390Z,156.00
2018-12-14T09:48:02.384Z,152.00
2018-12-14T09:49:02.388Z,148.00
2018-12-14T09:50:02.381Z,140.00
2018-12-14T09:51:02.354Z,144.00
2018-12-14T09:52:02.365Z,156.00
2018-12-14T09:53:02.329Z,152.00
2018-12-14T09:54:02.365Z,148.00
2018-12-14T09:55:02.307Z,152.00
2018-12-14T09:56:02.297Z,152.00
2018-12-14T09:57:02.285Z,152.00
2018-12-14T09:58:02.297Z,136.00
2018-12-14T09:59:02.276Z,124.00
2018-12-14T10:00:02.271Z,148.00
2018-12-14T10:01:02.237Z,148.00
2018-12-14T10:02:02.252Z,160.00
2018-12-14T10:03:02.282Z,168.00
2018-12-14T10:04:02.201Z,184.00
2018-12-14T10:05:02.200Z,196.00
2018-12-14T10:06:02.184Z,208.00
2018-12-14T10:07:02.179Z,216.00
2018-12-14T10:08:02.195Z,224.00
2018-12-14T10:09:02.148Z,224.00
2018-12-14T10:10:02.147Z,224.00
2018-12-14T10:11:02.145Z,212.00
2018-12-14T10:12:02.156Z,204.00
2018-12-14T10:13:02.111Z,204.00
2018-12-14T10:14:02.112Z,196.00
2018-12-14T10:15:02.093Z,192.00
2018-12-14T10:16:02.074Z,188.00
2018-12-14T10:17:02.090Z,172.00
2018-12-14T10:18:02.085Z,164.00
2018-12-14T10:19:02.065Z,164.00
2018-12-14T10:20:02.045Z,156.00
2018-12-14T10:21:02.070Z,140.00
2018-12-14T10:22:02.041Z,140.00
2018-12-14T10:23:02.012Z,132.00
2018-12-14T10:24:02.056Z,128.00
2018-12-14T10:25:01.983Z,120.00
2018-12-14T10:26:01.976Z,112.00
2018-12-14T10:27:01.954Z,104.00
2018-12-14T10:28:01.957Z,108.00
2018-12-14T10:29:01.956Z,124.00
2018-12-14T10:30:01.961Z,136.00
2018-12-14T10:31:01.925Z,140.00
2018-12-14T10:32:01.919Z,136.00
2018-12-14T10:33:01.920Z,136.00
2018-12-14T10:34:01.903Z,120.00
2018-12-14T10:35:01.875Z,112.00
2018-12-14T10:36:01.897Z,116.00
2018-12-14T10:37:01.865Z,124.00
2018-12-14T10:38:01.859Z,132.00
2018-12-14T10:39:01.898Z,132.00
2018-12-14T10:40:01.836Z,128.00
2018-12-14T10:41:01.819Z,128.00
2018-12-14T10:42:01.802Z,132.00
2018-12-14T10:43:01.804Z,136.00
2018-12-14T10:44:07.249Z,136.00
2018-12-14T10:45:02.779Z,144.00
2018-12-14T10:46:01.750Z,152.00
2018-12-14T10:47:01.748Z,160.00
2018-12-14T10:48:01.726Z,156.00
2018-12-14T10:49:01.754Z,136.00
2018-12-14T10:50:01.710Z,128.00
2018-12-14T10:51:01.703Z,124.00
2018-12-14T10:52:01.695Z,128.00
2018-12-14T10:53:01.685Z,128.00
2018-12-14T10:54:01.707Z,136.00
2018-12-14T10:55:01.663Z,140.00
2018-12-14T10:56:01.641Z,148.00
2018-12-14T10:57:01.726Z,156.00
2018-12-14T10:58:01.636Z,160.00
2018-12-14T10:59:01.645Z,160.00
2018-12-14T11:00:01.611Z,156.00
2018-12-14T11:01:01.591Z,148.00
2018-12-14T11:02:01.624Z,132.00
2018-12-14T11:03:01.574Z,132.00
2018-12-14T11:04:01.584Z,144.00
2018-12-14T11:05:01.552Z,148.00
2018-12-14T11:06:01.583Z,152.00
2018-12-14T11:07:01.526Z,164.00
2018-12-14T11:08:01.515Z,168.00
2018-12-14T11:09:01.575Z,160.00
2018-12-14T11:10:01.499Z,168.00
2018-12-14T11:11:01.480Z,164.00
2018-12-14T11:12:01.479Z,160.00
2018-12-14T11:13:01.459Z,164.00
2018-12-14T11:14:01.501Z,184.00
2018-12-14T11:15:01.479Z,196.00
2018-12-14T11:16:01.435Z,200.00
2018-12-14T11:17:01.420Z,200.00
2018-12-14T11:18:01.451Z,196.00
2018-12-14T11:19:01.445Z,192.00
2018-12-14T11:20:01.411Z,192.00
2018-12-14T11:21:01.373Z,196.00
2018-12-14T11:22:01.365Z,196.00
2018-12-14T11:23:01.355Z,192.00
2018-12-14T11:24:01.352Z,188.00
2018-12-14T11:25:01.365Z,188.00
2018-12-14T11:26:01.319Z,188.00
2018-12-14T11:27:01.316Z,184.00
2018-12-14T11:28:01.314Z,176.00
2018-12-14T11:29:01.293Z,176.00
2018-12-14T11:30:01.273Z,180.00
2018-12-14T11:31:01.294Z,176.00
2018-12-14T11:32:01.258Z,176.00
2018-12-14T11:33:01.263Z,180.00
2018-12-14T11:34:01.247Z,176.00
2018-12-14T11:35:01.224Z,176.00
2018-12-14T11:36:01.229Z,172.00
2018-12-14T11:37:01.206Z,172.00
2018-12-14T11:38:01.216Z,172.00
2018-12-14T11:39:01.195Z,172.00
2018-12-14T11:40:01.183Z,168.00
2018-12-14T11:41:01.203Z,168.00
2018-12-14T11:42:01.157Z,156.00
2018-12-14T11:43:01.157Z,144.00
2018-12-14T11:44:01.135Z,136.00
2018-12-14T11:45:01.130Z,140.00
2018-12-14T11:46:01.145Z,144.00
2018-12-14T11:47:01.139Z,144.00
2018-12-14T11:48:01.092Z,152.00
2018-12-14T11:49:01.074Z,156.00
2018-12-14T11:50:01.065Z,164.00
2018-12-14T11:51:01.054Z,168.00
2018-12-14T11:52:01.075Z,168.00
2018-12-14T11:53:01.063Z,176.00
2018-12-14T11:54:01.017Z,172.00
2018-12-14T11:55:01.011Z,172.00
2018-12-14T11:56:00.997Z,172.00
2018-12-14T11:57:01.037Z,168.00
2018-12-14T11:58:00.982Z,168.00
2018-12-14T11:59:00.971Z,168.00
2018-12-14T12:00:00.966Z,168.00
2018-12-14T12:01:00.945Z,164.00
2018-12-14T12:02:00.937Z,156.00
2018-12-14T12:03:00.965Z,152.00
2018-12-14T12:04:00.910Z,152.00
2018-12-14T12:05:00.920Z,152.00
2018-12-14T12:06:00.899Z,160.00
2018-12-14T12:07:00.911Z,164.00
2018-12-14T12:08:00.891Z,164.00
2018-12-14T12:09:00.899Z,164.00
2018-12-14T12:10:00.870Z,164.00
2018-12-14T12:11:00.846Z,168.00
2018-12-14T12:12:00.828Z,172.00
2018-12-14T12:13:00.900Z,180.00
2018-12-14T12:14:00.824Z,184.00
2018-12-14T12:15:00.805Z,184.00
2018-12-14T12:16:00.785Z,176.00
2018-12-14T12:17:00.789Z,168.00
2018-12-14T12:18:00.770Z,160.00
2018-12-14T12:19:00.783Z,160.00
2018-12-14T12:20:00.753Z,152.00
2018-12-14T12:21:00.734Z,148.00
2018-12-14T12:22:00.716Z,152.00
2018-12-14T12:23:00.709Z,160.00
2018-12-14T12:24:00.738Z,152.00
2018-12-14T12:25:00.691Z,144.00
2018-12-14T12:26:00.688Z,148.00
2018-12-14T12:27:00.703Z,152.00
2018-12-14T12:28:00.664Z,156.00
2018-12-14T12:29:00.713Z,160.00
2018-12-14T12:30:00.656Z,160.00
2018-12-14T12:31:00.620Z,156.00
2018-12-14T12:32:00.625Z,156.00
2018-12-14T12:33:00.636Z,148.00
2018-12-14T12:34:00.599Z,152.00
2018-12-14T12:35:00.609Z,152.00
2018-12-14T12:36:00.618Z,144.00
2018-12-14T12:37:00.564Z,140.00
2018-12-14T12:38:00.544Z,140.00
2018-12-14T12:39:00.535Z,136.00
2018-12-14T12:40:00.542Z,128.00
2018-12-14T12:41:00.510Z,132.00
2018-12-14T12:42:00.529Z,128.00
2018-12-14T12:43:00.505Z,128.00
2018-12-14T12:44:00.482Z,128.00
2018-12-14T12:45:00.541Z,124.00
2018-12-14T12:46:00.459Z,116.00
2018-12-14T12:47:00.450Z,116.00
2018-12-14T12:48:00.444Z,120.00
2018-12-14T12:49:00.436Z,124.00
2018-12-14T12:50:00.419Z,132.00
2018-12-14T12:51:03.230Z,132.00
2018-12-14T12:52:00.407Z,136.00
2018-12-14T12:53:00.386Z,132.00
2018-12-14T12:54:00.378Z,132.00
2018-12-14T12:55:00.372Z,128.00
2018-12-14T12:56:00.377Z,124.00
2018-12-14T12:57:00.346Z,124.00
2018-12-14T12:58:00.329Z,120.00
2018-12-14T12:59:00.316Z,124.00